Stamford, United Kingdom
Current Conditions -  °F | °C
As of 3:50 AM on Tuesday 21 Oct 2014 (Local Time) from EGXT Reporting Station
Scattered Clouds Scattered Clouds  
Wind Chill: 12°   Ceiling: Unl
Heat Index: 12°   Visibility: 6mi
Dew Point: 10°   Wind: 20mph
Humidity: 88%   Direction: 210°SSW
Pressure: 29.59"   Gusts: NA
Location:  52.65°N, 0.48°W
Report Text: EGXT 210250Z AUTO 21017KT 9999 // SCT026/// SCT080/// 12/10 Q1002
Loading
Personal Weather Stations






























Interactive Weather Map
Tropical Storm Tracking
New forecast layout! Learn more

10-Day Weather Forecast

Advertisements
Track Severe Weather on mobile